sensor_id;sensor_type;location;lat;lon;timestamp;pressure;altitude;pressure_sealevel;temperature;humidity
64404;BME280;50726;54.912;-8.392;2022-09-01T00:00:12;102005.78;;;29.53;85.50
64404;BME280;50726;54.912;-8.392;2022-09-01T00:02:41;102007.22;;;29.68;87.21
64404;BME280;50726;54.912;-8.392;2022-09-01T00:05:18;101989.41;;;28.64;88.13
64404;BME280;50726;54.912;-8.392;2022-09-01T00:07:44;102003.31;;;28.47;88.37
64404;BME280;50726;54.912;-8.392;2022-09-01T00:10:10;101990.09;;;28.08;92.45
64404;BME280;50726;54.912;-8.392;2022-09-01T00:12:37;102003.38;;;28.81;89.10
64404;BME280;50726;54.912;-8.392;2022-09-01T00:15:12;102006.63;;;29.53;85.85
64404;BME280;50726;54.912;-8.392;2022-09-01T00:17:52;101998.19;;;30.23;83.16
64404;BME280;50726;54.912;-8.392;2022-09-01T00:20:18;101998.38;;;27.80;87.14
64404;BME280;50726;54.912;-8.392;2022-09-01T00:22:53;101993.53;;;28.57;86.68
64404;BME280;50726;54.912;-8.392;2022-09-01T00:25:28;101992.50;;;28.24;89.07
64404;BME280;50726;54.912;-8.392;2022-09-01T00:27:54;101996.44;;;28.07;89.88
64404;BME280;50726;54.912;-8.392;2022-09-01T00:30:39;101998.09;;;29.25;84.27
64404;BME280;50726;54.912;-8.392;2022-09-01T00:33:12;101991.09;;;29.34;82.59
64404;BME280;50726;54.912;-8.392;2022-09-01T00:36:04;101991.06;;;29.45;85.33
64404;BME280;50726;54.912;-8.392;2022-09-01T00:38:37;101991.94;;;29.46;85.51
64404;BME280;50726;54.912;-8.392;2022-09-01T00:41:06;101989.84;;;29.61;84.67
64404;BME280;50726;54.912;-8.392;2022-09-01T00:43:42;101985.59;;;29.24;84.08
64404;BME280;50726;54.912;-8.392;2022-09-01T00:49:27;101981.34;;;28.76;85.71
64404;BME280;50726;54.912;-8.392;2022-09-01T00:52:16;101977.44;;;28.91;81.83
64404;BME280;50726;54.912;-8.392;2022-09-01T00:54:47;101973.47;;;30.07;87.41
64404;BME280;50726;54.912;-8.392;2022-09-01T00:57:26;101975.94;;;29.21;85.96
64404;BME280;50726;54.912;-8.392;2022-09-01T01:00:01;101967.81;;;27.32;87.99
64404;BME280;50726;54.912;-8.392;2022-09-01T01:02:50;101970.16;;;27.99;86.30
64404;BME280;50726;54.912;-8.392;2022-09-01T01:05:30;101976.13;;;28.38;90.92
64404;BME280;50726;54.912;-8.392;2022-09-01T01:08:02;101970.75;;;28.38;88.23
64404;BME280;50726;54.912;-8.392;2022-09-01T01:10:45;101972.38;;;28.52;87.36
64404;BME280;50726;54.912;-8.392;2022-09-01T01:13:17;101968.56;;;28.55;85.78
64404;BME280;50726;54.912;-8.392;2022-09-01T01:15:44;101972.66;;;28.72;84.70
64404;BME280;50726;54.912;-8.392;2022-09-01T01:18:11;101970.78;;;28.73;91.25
64404;BME280;50726;54.912;-8.392;2022-09-01T01:20:40;101973.81;;;28.09;93.96
64404;BME280;50726;54.912;-8.392;2022-09-01T01:23:56;101967.84;;;28.41;90.51
64404;BME280;50726;54.912;-8.392;2022-09-01T01:26:29;101967.84;;;28.53;92.57
64404;BME280;50726;54.912;-8.392;2022-09-01T01:28:58;101966.56;;;28.23;89.12
64404;BME280;50726;54.912;-8.392;2022-09-01T01:31:26;101949.13;;;28.51;89.06
64404;BME280;50726;54.912;-8.392;2022-09-01T01:33:54;101939.81;;;27.61;87.81
64404;BME280;50726;54.912;-8.392;2022-09-01T01:36:33;101962.16;;;28.33;90.42
64404;BME280;50726;54.912;-8.392;2022-09-01T01:39:04;101961.81;;;28.26;89.97
64404;BME280;50726;54.912;-8.392;2022-09-01T01:41:31;101956.66;;;27.87;93.78
64404;BME280;50726;54.912;-8.392;2022-09-01T01:43:59;101948.75;;;27.73;93.28
64404;BME280;50726;54.912;-8.392;2022-09-01T01:46:34;101948.56;;;28.93;89.24
64404;BME280;50726;54.912;-8.392;2022-09-01T01:49:00;101935.19;;;28.69;89.19
64404;BME280;50726;54.912;-8.392;2022-09-01T01:51:28;101939.59;;;28.59;88.51
64404;BME280;50726;54.912;-8.392;2022-09-01T01:53:58;101942.88;;;28.85;90.14
64404;BME280;50726;54.912;-8.392;2022-09-01T01:56:26;101940.19;;;28.62;89.86
64404;BME280;50726;54.912;-8.392;2022-09-01T01:58:53;101941.84;;;29.55;81.88
64404;BME280;50726;54.912;-8.392;2022-09-01T02:01:35;101940.91;;;30.20;87.04
64404;BME280;50726;54.912;-8.392;2022-09-01T02:04:04;101934.78;;;29.31;85.95
64404;BME280;50726;54.912;-8.392;2022-09-01T02:06:33;101934.69;;;30.19;84.44
64404;BME280;50726;54.912;-8.392;2022-09-01T02:08:59;101936.78;;;28.83;87.09
64404;BME280;50726;54.912;-8.392;2022-09-01T02:11:47;101930.44;;;30.05;86.76
64404;BME280;50726;54.912;-8.392;2022-09-01T02:14:24;101923.28;;;29.29;86.38
64404;BME280;50726;54.912;-8.392;2022-09-01T02:16:54;101934.66;;;29.98;84.18
64404;BME280;50726;54.912;-8.392;2022-09-01T02:19:20;101932.13;;;28.85;82.80
64404;BME280;50726;54.912;-8.392;2022-09-01T02:21:49;101931.88;;;28.65;86.62
64404;BME280;50726;54.912;-8.392;2022-09-01T02:24:19;101931.88;;;28.54;84.09
64404;BME280;50726;54.912;-8.392;2022-09-01T02:26:47;101936.06;;;28.70;84.82
64404;BME280;50726;54.912;-8.392;2022-09-01T02:29:29;101929.22;;;29.55;85.30
64404;BME280;50726;54.912;-8.392;2022-09-01T02:31:56;101919.41;;;29.54;83.20
64404;BME280;50726;54.912;-8.392;2022-09-01T02:34:25;101918.94;;;30.24;84.05
64404;BME280;50726;54.912;-8.392;2022-09-01T02:36:55;101919.09;;;30.64;84.68
64404;BME280;50726;54.912;-8.392;2022-09-01T02:42:30;101920.34;;;29.20;80.15
64404;BME280;50726;54.912;-8.392;2022-09-01T02:45:06;101917.63;;;30.71;81.86
64404;BME280;50726;54.912;-8.392;2022-09-01T02:47:39;101909.25;;;30.00;76.55
64404;BME280;50726;54.912;-8.392;2022-09-01T02:50:33;101914.13;;;30.59;81.57
64404;BME280;50726;54.912;-8.392;2022-09-01T02:53:12;101907.53;;;30.42;82.76
64404;BME280;50726;54.912;-8.392;2022-09-01T02:55:41;101902.00;;;29.47;79.31
64404;BME280;50726;54.912;-8.392;2022-09-01T02:58:16;101907.38;;;29.58;79.76
64404;BME280;50726;54.912;-8.392;2022-09-01T03:00:56;101897.19;;;30.05;80.32
64404;BME280;50726;54.912;-8.392;2022-09-01T03:03:23;101906.13;;;30.17;78.30
64404;BME280;50726;54.912;-8.392;2022-09-01T03:05:53;101890.69;;;30.28;76.22
64404;BME280;50726;54.912;-8.392;2022-09-01T03:08:37;101899.44;;;30.42;81.26
64404;BME280;50726;54.912;-8.392;2022-09-01T03:11:06;101901.88;;;29.60;76.89
64404;BME280;50726;54.912;-8.392;2022-09-01T03:13:49;101897.91;;;30.49;76.57
64404;BME280;50726;54.912;-8.392;2022-09-01T03:16:17;101900.34;;;29.34;85.02
64404;BME280;50726;54.912;-8.392;2022-09-01T03:18:46;101901.94;;;29.70;84.84
64404;BME280;50726;54.912;-8.392;2022-09-01T03:21:13;101888.78;;;27.72;82.84
64404;BME280;50726;54.912;-8.392;2022-09-01T03:23:45;101896.66;;;29.68;81.08
64404;BME280;50726;54.912;-8.392;2022-09-01T03:26:20;101892.63;;;28.97;81.67
64404;BME280;50726;54.912;-8.392;2022-09-01T03:29:07;101896.75;;;29.78;81.81
64404;BME280;50726;54.912;-8.392;2022-09-01T03:31:37;101889.50;;;29.13;83.74
64404;BME280;50726;54.912;-8.392;2022-09-01T03:34:08;101896.28;;;28.73;80.83
64404;BME280;50726;54.912;-8.392;2022-09-01T03:36:36;101899.16;;;27.66;88.11
64404;BME280;50726;54.912;-8.392;2022-09-01T03:39:03;101898.97;;;28.50;87.95
64404;BME280;50726;54.912;-8.392;2022-09-01T03:41:30;101900.56;;;28.41;84.91
64404;BME280;50726;54.912;-8.392;2022-09-01T03:44:02;101897.88;;;28.99;82.91
64404;BME280;50726;54.912;-8.392;2022-09-01T03:46:29;101892.69;;;29.18;84.90
64404;BME280;50726;54.912;-8.392;2022-09-01T03:49:15;101886.84;;;28.79;83.85
64404;BME280;50726;54.912;-8.392;2022-09-01T03:51:55;101887.94;;;29.43;79.70
64404;BME280;50726;54.912;-8.392;2022-09-01T03:54:22;101894.06;;;27.85;84.33
64404;BME280;50726;54.912;-8.392;2022-09-01T03:57:01;101881.09;;;30.36;79.10
64404;BME280;50726;54.912;-8.392;2022-09-01T03:59:37;101889.44;;;28.92;80.61
64404;BME280;50726;54.912;-8.392;2022-09-01T04:02:25;101886.94;;;29.44;83.95
64404;BME280;50726;54.912;-8.392;2022-09-01T04:04:53;101880.72;;;29.77;82.28
64404;BME280;50726;54.912;-8.392;2022-09-01T04:10:03;101883.44;;;28.54;81.82
64404;BME280;50726;54.912;-8.392;2022-09-01T04:12:36;101866.78;;;28.83;78.48
64404;BME280;50726;54.912;-8.392;2022-09-01T04:15:05;101870.44;;;29.05;82.70
64404;BME280;50726;54.912;-8.392;2022-09-01T04:17:32;101871.94;;;28.86;85.77
64404;BME280;50726;54.912;-8.392;2022-09-01T04:20:17;101875.50;;;28.87;77.55
64404;BME280;50726;54.912;-8.392;2022-09-01T04:22:48;101868.09;;;29.12;85.22
64404;BME280;50726;54.912;-8.392;2022-09-01T04:25:18;101866.69;;;30.25;83.05
64404;BME280;50726;54.912;-8.392;2022-09-01T04:27:51;101863.06;;;29.18;81.20
64404;BME280;50726;54.912;-8.392;2022-09-01T04:30:23;101867.09;;;29.78;78.31
64404;BME280;50726;54.912;-8.392;2022-09-01T04:32:56;101864.22;;;28.36;84.01
64404;BME280;50726;54.912;-8.392;2022-09-01T04:35:23;101863.38;;;28.58;83.35
64404;BME280;50726;54.912;-8.392;2022-09-01T04:38:00;101864.75;;;29.19;83.24
64404;BME280;50726;54.912;-8.392;2022-09-01T04:40:27;101861.78;;;28.78;83.19
64404;BME280;50726;54.912;-8.392;2022-09-01T04:42:52;101855.63;;;27.96;84.52
64404;BME280;50726;54.912;-8.392;2022-09-01T04:45:21;101857.34;;;29.66;81.02
64404;BME280;50726;54.912;-8.392;2022-09-01T04:47:54;101851.78;;;29.46;82.72
64404;BME280;50726;54.912;-8.392;2022-09-01T04:50:21;101853.50;;;29.14;84.10
64404;BME280;50726;54.912;-8.392;2022-09-01T04:52:51;101857.69;;;29.94;81.86
64404;BME280;50726;54.912;-8.392;2022-09-01T04:55:22;101843.38;;;29.93;82.32
64404;BME280;50726;54.912;-8.392;2022-09-01T04:57:51;101845.00;;;30.37;80.88
64404;BME280;50726;54.912;-8.392;2022-09-01T05:00:20;101845.44;;;29.68;80.17
64404;BME280;50726;54.912;-8.392;2022-09-01T05:03:02;101838.88;;;28.96;82.49
64404;BME280;50726;54.912;-8.392;2022-09-01T05:05:38;101845.50;;;28.57;78.99
64404;BME280;50726;54.912;-8.392;2022-09-01T05:08:15;101838.53;;;29.21;83.92
64404;BME280;50726;54.912;-8.392;2022-09-01T05:10:47;101842.06;;;28.78;84.60
64404;BME280;50726;54.912;-8.392;2022-09-01T05:13:18;101847.22;;;28.70;85.39
64404;BME280;50726;54.912;-8.392;2022-09-01T05:15:45;101833.53;;;28.50;84.96
64404;BME280;50726;54.912;-8.392;2022-09-01T05:18:18;101846.56;;;29.33;82.88
64404;BME280;50726;54.912;-8.392;2022-09-01T05:21:04;101851.38;;;28.74;82.43
64404;BME280;50726;54.912;-8.392;2022-09-01T05:23:37;101838.25;;;30.21;80.21
64404;BME280;50726;54.912;-8.392;2022-09-01T05:26:10;101846.59;;;28.77;84.16
64404;BME280;50726;54.912;-8.392;2022-09-01T05:28:52;101850.66;;;28.37;85.77
64404;BME280;50726;54.912;-8.392;2022-09-01T05:33:54;101842.69;;;28.93;83.36
64404;BME280;50726;54.912;-8.392;2022-09-01T05:36:22;101847.59;;;29.20;82.04
64404;BME280;50726;54.912;-8.392;2022-09-01T05:38:51;101823.75;;;29.16;82.32
64404;BME280;50726;54.912;-8.392;2022-09-01T05:41:30;101827.09;;;29.08;82.97
64404;BME280;50726;54.912;-8.392;2022-09-01T05:44:01;101834.03;;;29.55;81.17
64404;BME280;50726;54.912;-8.392;2022-09-01T05:46:28;101838.34;;;30.41;79.39
64404;BME280;50726;54.912;-8.392;2022-09-01T05:48:59;101845.53;;;30.21;79.21
64404;BME280;50726;54.912;-8.392;2022-09-01T05:51:26;101844.44;;;29.15;79.50
64404;BME280;50726;54.912;-8.392;2022-09-01T05:53:55;101821.09;;;29.37;79.99
64404;BME280;50726;54.912;-8.392;2022-09-01T05:56:28;101830.47;;;29.54;79.76
64404;BME280;50726;54.912;-8.392;2022-09-01T05:59:00;101834.75;;;29.45;78.75
64404;BME280;50726;54.912;-8.392;2022-09-01T06:01:28;101837.16;;;30.02;78.95
64404;BME280;50726;54.912;-8.392;2022-09-01T06:04:00;101839.75;;;29.61;80.54
64404;BME280;50726;54.912;-8.392;2022-09-01T06:06:39;101841.44;;;28.86;81.88
64404;BME280;50726;54.912;-8.392;2022-09-01T06:12:31;101834.31;;;30.25;77.06
64404;BME280;50726;54.912;-8.392;2022-09-01T06:14:58;101838.13;;;29.70;76.13
64404;BME280;50726;54.912;-8.392;2022-09-01T06:17:34;101832.31;;;29.21;79.02
64404;BME280;50726;54.912;-8.392;2022-09-01T06:20:12;101823.63;;;29.71;80.17
64404;BME280;50726;54.912;-8.392;2022-09-01T06:22:38;101829.59;;;29.96;79.63
64404;BME280;50726;54.912;-8.392;2022-09-01T06:25:07;101830.00;;;30.13;80.23
64404;BME280;50726;54.912;-8.392;2022-09-01T06:27:36;101833.31;;;29.74;79.41
64404;BME280;50726;54.912;-8.392;2022-09-01T06:30:07;101830.75;;;29.40;81.00
64404;BME280;50726;54.912;-8.392;2022-09-01T06:32:40;101821.53;;;30.06;80.39
64404;BME280;50726;54.912;-8.392;2022-09-01T06:35:09;101826.75;;;30.19;79.06
64404;BME280;50726;54.912;-8.392;2022-09-01T06:37:38;101834.53;;;29.91;79.19
64404;BME280;50726;54.912;-8.392;2022-09-01T06:40:05;101829.28;;;30.11;79.93
64404;BME280;50726;54.912;-8.392;2022-09-01T06:42:35;101823.44;;;29.84;79.69
64404;BME280;50726;54.912;-8.392;2022-09-01T06:45:02;101827.78;;;29.76;80.86
64404;BME280;50726;54.912;-8.392;2022-09-01T06:47:35;101835.78;;;30.39;80.23
64404;BME280;50726;54.912;-8.392;2022-09-01T06:50:03;101819.47;;;30.41;79.77
64404;BME280;50726;54.912;-8.392;2022-09-01T06:52:33;101838.59;;;30.69;79.05
64404;BME280;50726;54.912;-8.392;2022-09-01T06:54:59;101827.16;;;31.56;77.49
64404;BME280;50726;54.912;-8.392;2022-09-01T06:57:25;101822.03;;;28.71;81.42
64404;BME280;50726;54.912;-8.392;2022-09-01T06:59:55;101823.19;;;29.66;82.47
64404;BME280;50726;54.912;-8.392;2022-09-01T07:02:24;101835.72;;;30.61;80.15
64404;BME280;50726;54.912;-8.392;2022-09-01T07:04:51;101836.69;;;30.19;79.79
64404;BME280;50726;54.912;-8.392;2022-09-01T07:07:21;101839.41;;;30.60;79.35
64404;BME280;50726;54.912;-8.392;2022-09-01T07:09:50;101831.81;;;30.85;79.13
64404;BME280;50726;54.912;-8.392;2022-09-01T07:12:23;101830.97;;;30.94;78.29
64404;BME280;50726;54.912;-8.392;2022-09-01T07:15:00;101832.56;;;29.51;81.99
64404;BME280;50726;54.912;-8.392;2022-09-01T07:17:26;101832.75;;;30.01;81.78
64404;BME280;50726;54.912;-8.392;2022-09-01T07:20:02;101828.53;;;30.71;80.18
64404;BME280;50726;54.912;-8.392;2022-09-01T07:22:29;101824.03;;;30.50;81.58
64404;BME280;50726;54.912;-8.392;2022-09-01T07:25:04;101841.03;;;30.72;81.75
64404;BME280;50726;54.912;-8.392;2022-09-01T07:27:42;101836.38;;;30.94;80.60
64404;BME280;50726;54.912;-8.392;2022-09-01T07:30:18;101831.22;;;30.71;79.51
64404;BME280;50726;54.912;-8.392;2022-09-01T07:32:48;101834.38;;;30.76;79.59
64404;BME280;50726;54.912;-8.392;2022-09-01T07:35:18;101810.16;;;31.83;76.40
64404;BME280;50726;54.912;-8.392;2022-09-01T07:37:50;101806.41;;;31.37;77.98
64404;BME280;50726;54.912;-8.392;2022-09-01T07:40:26;101808.81;;;31.40;77.67
64404;BME280;50726;54.912;-8.392;2022-09-01T07:42:54;101814.38;;;31.48;79.87
64404;BME280;50726;54.912;-8.392;2022-09-01T07:45:21;101817.59;;;31.22;79.36
64404;BME280;50726;54.912;-8.392;2022-09-01T07:47:50;101837.47;;;30.31;79.81
64404;BME280;50726;54.912;-8.392;2022-09-01T07:50:25;101827.47;;;30.52;81.05
64404;BME280;50726;54.912;-8.392;2022-09-01T07:52:59;101797.78;;;30.21;82.60
64404;BME280;50726;54.912;-8.392;2022-09-01T07:55:34;101838.13;;;31.34;80.07
64404;BME280;50726;54.912;-8.392;2022-09-01T07:58:04;101813.13;;;30.21;83.34
64404;BME280;50726;54.912;-8.392;2022-09-01T08:00:33;101802.78;;;29.73;86.16
64404;BME280;50726;54.912;-8.392;2022-09-01T08:03:03;101807.44;;;30.14;86.13
64404;BME280;50726;54.912;-8.392;2022-09-01T08:05:41;101835.56;;;30.21;86.25
64404;BME280;50726;54.912;-8.392;2022-09-01T08:08:15;101810.19;;;30.02;86.19
64404;BME280;50726;54.912;-8.392;2022-09-01T08:10:42;101830.31;;;29.98;89.19
64404;BME280;50726;54.912;-8.392;2022-09-01T08:16:22;101810.91;;;29.83;89.70
64404;BME280;50726;54.912;-8.392;2022-09-01T08:19:10;101814.44;;;29.74;88.28
64404;BME280;50726;54.912;-8.392;2022-09-01T08:21:47;101805.53;;;30.36;88.70
64404;BME280;50726;54.912;-8.392;2022-09-01T08:24:24;101832.00;;;30.11;88.06
64404;BME280;50726;54.912;-8.392;2022-09-01T08:27:04;101833.06;;;30.30;89.25
64404;BME280;50726;54.912;-8.392;2022-09-01T08:29:51;101817.13;;;30.26;89.07
64404;BME280;50726;54.912;-8.392;2022-09-01T08:32:33;101811.53;;;30.49;90.22
64404;BME280;50726;54.912;-8.392;2022-09-01T08:35:19;101832.50;;;30.36;91.96
64404;BME280;50726;54.912;-8.392;2022-09-01T08:37:58;101824.13;;;30.70;89.34
64404;BME280;50726;54.912;-8.392;2022-09-01T08:40:24;101827.34;;;30.23;90.40
64404;BME280;50726;54.912;-8.392;2022-09-01T08:46:38;101831.94;;;30.73;88.44
64404;BME280;50726;54.912;-8.392;2022-09-01T08:49:22;101790.97;;;30.68;88.12
64404;BME280;50726;54.912;-8.392;2022-09-01T08:52:05;101827.06;;;30.05;91.02
64404;BME280;50726;54.912;-8.392;2022-09-01T08:58:17;101808.72;;;30.20;90.95
64404;BME280;50726;54.912;-8.392;2022-09-01T09:01:03;101809.94;;;31.07;88.96
64404;BME280;50726;54.912;-8.392;2022-09-01T09:04:10;101815.94;;;30.09;89.46
64404;BME280;50726;54.912;-8.392;2022-09-01T09:10:24;101809.06;;;30.77;88.80
64404;BME280;50726;54.912;-8.392;2022-09-01T09:19:40;101800.53;;;30.72;90.75
64404;BME280;50726;54.912;-8.392;2022-09-01T09:22:16;101788.47;;;31.06;91.90
64404;BME280;50726;54.912;-8.392;2022-09-01T09:25:11;101767.84;;;30.75;91.59
64404;BME280;50726;54.912;-8.392;2022-09-01T09:27:44;101774.25;;;31.14;91.40
64404;BME280;50726;54.912;-8.392;2022-09-01T09:30:28;101768.25;;;31.59;90.41
64404;BME280;50726;54.912;-8.392;2022-09-01T09:33:04;101768.44;;;31.28;89.87
64404;BME280;50726;54.912;-8.392;2022-09-01T09:35:42;101782.91;;;31.57;91.50
64404;BME280;50726;54.912;-8.392;2022-09-01T09:38:20;101762.28;;;31.56;89.73
64404;BME280;50726;54.912;-8.392;2022-09-01T09:41:15;101767.00;;;31.24;90.13
64404;BME280;50726;54.912;-8.392;2022-09-01T09:46:59;101763.03;;;32.24;86.52
64404;BME280;50726;54.912;-8.392;2022-09-01T09:49:30;101773.34;;;32.10;87.09
64404;BME280;50726;54.912;-8.392;2022-09-01T09:52:27;101788.44;;;33.68;83.68
64404;BME280;50726;54.912;-8.392;2022-09-01T09:55:26;101778.53;;;33.14;84.33
64404;BME280;50726;54.912;-8.392;2022-09-01T09:58:24;101790.63;;;35.19;79.52
64404;BME280;50726;54.912;-8.392;2022-09-01T10:03:52;101768.53;;;33.51;83.28
64404;BME280;50726;54.912;-8.392;2022-09-01T10:06:38;101770.78;;;33.64;83.37
64404;BME280;50726;54.912;-8.392;2022-09-01T10:11:58;101773.94;;;34.12;82.22
64404;BME280;50726;54.912;-8.392;2022-09-01T10:14:42;101764.69;;;33.62;83.29
64404;BME280;50726;54.912;-8.392;2022-09-01T10:17:18;101762.88;;;34.06;84.08
64404;BME280;50726;54.912;-8.392;2022-09-01T10:20:12;101756.34;;;34.25;81.44
64404;BME280;50726;54.912;-8.392;2022-09-01T10:22:50;101757.13;;;34.60;79.82
64404;BME280;50726;54.912;-8.392;2022-09-01T10:25:25;101755.06;;;34.54;82.66
64404;BME280;50726;54.912;-8.392;2022-09-01T10:28:20;101740.88;;;33.82;81.59
64404;BME280;50726;54.912;-8.392;2022-09-01T10:30:54;101755.81;;;34.21;83.51
64404;BME280;50726;54.912;-8.392;2022-09-01T10:33:28;101758.94;;;33.20;89.37
64404;BME280;50726;54.912;-8.392;2022-09-01T10:35:55;101753.53;;;31.72;88.43
64404;BME280;50726;54.912;-8.392;2022-09-01T10:38:27;101746.34;;;34.25;83.65
64404;BME280;50726;54.912;-8.392;2022-09-01T10:44:37;101748.59;;;34.55;81.49
64404;BME280;50726;54.912;-8.392;2022-09-01T10:47:28;101741.69;;;35.44;79.04
64404;BME280;50726;54.912;-8.392;2022-09-01T10:50:30;101744.75;;;35.32;78.77
64404;BME280;50726;54.912;-8.392;2022-09-01T10:53:05;101728.25;;;35.42;75.88
64404;BME280;50726;54.912;-8.392;2022-09-01T10:55:43;101743.16;;;36.20;76.11
64404;BME280;50726;54.912;-8.392;2022-09-01T11:00:56;101720.53;;;36.42;72.65
64404;BME280;50726;54.912;-8.392;2022-09-01T11:03:34;101727.72;;;35.55;73.86
64404;BME280;50726;54.912;-8.392;2022-09-01T11:13:55;101700.75;;;34.79;72.89
64404;BME280;50726;54.912;-8.392;2022-09-01T11:28:05;101706.72;;;35.16;74.24
64404;BME280;50726;54.912;-8.392;2022-09-01T11:33:49;101709.25;;;35.82;69.50
64404;BME280;50726;54.912;-8.392;2022-09-01T11:38:49;101695.53;;;36.07;71.73
64404;BME280;50726;54.912;-8.392;2022-09-01T11:47:25;101693.25;;;36.51;70.03
64404;BME280;50726;54.912;-8.392;2022-09-01T11:50:01;101700.31;;;37.37;68.66
64404;BME280;50726;54.912;-8.392;2022-09-01T11:52:31;101696.13;;;35.94;71.65
64404;BME280;50726;54.912;-8.392;2022-09-01T11:54:58;101689.59;;;36.35;68.01
64404;BME280;50726;54.912;-8.392;2022-09-01T11:57:29;101692.38;;;36.50;67.37
64404;BME280;50726;54.912;-8.392;2022-09-01T11:59:59;101693.50;;;36.64;66.95
64404;BME280;50726;54.912;-8.392;2022-09-01T12:02:30;101671.75;;;37.33;65.48
64404;BME280;50726;54.912;-8.392;2022-09-01T12:04:59;101680.81;;;36.48;66.09
64404;BME280;50726;54.912;-8.392;2022-09-01T12:07:45;101667.31;;;37.62;65.24
64404;BME280;50726;54.912;-8.392;2022-09-01T12:10:35;101671.34;;;38.03;64.40
64404;BME280;50726;54.912;-8.392;2022-09-01T12:13:20;101669.94;;;39.30;60.95
64404;BME280;50726;54.912;-8.392;2022-09-01T12:15:58;101676.41;;;37.09;63.22
64404;BME280;50726;54.912;-8.392;2022-09-01T12:18:28;101666.19;;;38.52;61.05
64404;BME280;50726;54.912;-8.392;2022-09-01T12:20:56;101667.78;;;38.61;60.37
64404;BME280;50726;54.912;-8.392;2022-09-01T12:23:27;101677.16;;;36.64;63.29
64404;BME280;50726;54.912;-8.392;2022-09-01T12:26:00;101673.69;;;36.71;64.16
64404;BME280;50726;54.912;-8.392;2022-09-01T12:28:30;101665.22;;;37.79;61.16
64404;BME280;50726;54.912;-8.392;2022-09-01T12:31:14;101674.81;;;36.53;61.23
64404;BME280;50726;54.912;-8.392;2022-09-01T12:33:42;101669.16;;;36.08;62.78
64404;BME280;50726;54.912;-8.392;2022-09-01T12:36:20;101660.28;;;36.84;62.42
64404;BME280;50726;54.912;-8.392;2022-09-01T12:38:48;101653.97;;;37.89;60.53
64404;BME280;50726;54.912;-8.392;2022-09-01T12:41:35;101653.47;;;37.48;59.24
64404;BME280;50726;54.912;-8.392;2022-09-01T12:47:08;101640.84;;;38.87;55.77
64404;BME280;50726;54.912;-8.392;2022-09-01T12:49:42;101645.38;;;39.01;57.76
64404;BME280;50726;54.912;-8.392;2022-09-01T12:52:24;101635.69;;;38.70;56.97
64404;BME280;50726;54.912;-8.392;2022-09-01T12:57:47;101642.34;;;39.67;55.18
64404;BME280;50726;54.912;-8.392;2022-09-01T13:00:24;101636.28;;;39.71;54.85
64404;BME280;50726;54.912;-8.392;2022-09-01T13:03:12;101637.28;;;40.39;53.53
64404;BME280;50726;54.912;-8.392;2022-09-01T13:05:45;101634.88;;;39.05;54.49
64404;BME280;50726;54.912;-8.392;2022-09-01T13:08:21;101625.22;;;40.27;50.00
64404;BME280;50726;54.912;-8.392;2022-09-01T13:13:27;101622.63;;;39.92;51.98
64404;BME280;50726;54.912;-8.392;2022-09-01T13:15:58;101624.13;;;38.68;60.20
64404;BME280;50726;54.912;-8.392;2022-09-01T13:18:28;101625.28;;;37.11;67.71
64404;BME280;50726;54.912;-8.392;2022-09-01T13:21:01;101621.47;;;36.44;70.11
64404;BME280;50726;54.912;-8.392;2022-09-01T13:23:29;101619.00;;;36.49;70.84
64404;BME280;50726;54.912;-8.392;2022-09-01T13:25:57;101616.94;;;36.89;70.93
64404;BME280;50726;54.912;-8.392;2022-09-01T13:28:27;101607.19;;;35.86;74.37
64404;BME280;50726;54.912;-8.392;2022-09-01T13:31:03;101603.47;;;36.34;71.54
64404;BME280;50726;54.912;-8.392;2022-09-01T13:33:34;101601.56;;;36.20;72.45
64404;BME280;50726;54.912;-8.392;2022-09-01T13:36:04;101603.69;;;36.01;75.74
64404;BME280;50726;54.912;-8.392;2022-09-01T13:38:32;101598.63;;;33.85;81.70
64404;BME280;50726;54.912;-8.392;2022-09-01T13:41:00;101602.75;;;35.54;77.82
64404;BME280;50726;54.912;-8.392;2022-09-01T13:43:27;101592.19;;;35.59;76.78
64404;BME280;50726;54.912;-8.392;2022-09-01T13:46:00;101592.69;;;35.94;77.92
64404;BME280;50726;54.912;-8.392;2022-09-01T13:48:28;101592.69;;;37.40;74.27
64404;BME280;50726;54.912;-8.392;2022-09-01T13:50:54;101583.44;;;38.87;69.46
64404;BME280;50726;54.912;-8.392;2022-09-01T13:53:21;101587.50;;;39.95;67.07
64404;BME280;50726;54.912;-8.392;2022-09-01T13:55:51;101566.75;;;41.07;61.69
64404;BME280;50726;54.912;-8.392;2022-09-01T13:58:17;101565.31;;;40.91;63.27
64404;BME280;50726;54.912;-8.392;2022-09-01T14:00:45;101575.16;;;41.58;59.74
64404;BME280;50726;54.912;-8.392;2022-09-01T14:03:15;101570.31;;;41.08;61.41
64404;BME280;50726;54.912;-8.392;2022-09-01T14:05:47;101565.31;;;41.83;53.95
64404;BME280;50726;54.912;-8.392;2022-09-01T14:08:18;101567.69;;;40.54;51.76
64404;BME280;50726;54.912;-8.392;2022-09-01T14:10:47;101566.38;;;42.07;55.47
64404;BME280;50726;54.912;-8.392;2022-09-01T14:13:15;101561.19;;;40.42;55.84
64404;BME280;50726;54.912;-8.392;2022-09-01T14:15:43;101567.41;;;39.19;62.25
64404;BME280;50726;54.912;-8.392;2022-09-01T14:18:09;101567.22;;;37.84;65.04
64404;BME280;50726;54.912;-8.392;2022-09-01T14:20:37;101567.53;;;37.23;67.00
64404;BME280;50726;54.912;-8.392;2022-09-01T14:23:08;101559.03;;;37.47;68.52
64404;BME280;50726;54.912;-8.392;2022-09-01T14:25:36;101556.44;;;38.20;68.53
64404;BME280;50726;54.912;-8.392;2022-09-01T14:28:04;101557.34;;;40.56;60.27
64404;BME280;50726;54.912;-8.392;2022-09-01T14:30:31;101546.75;;;43.11;54.58
64404;BME280;50726;54.912;-8.392;2022-09-01T14:33:00;101548.09;;;43.39;53.05
64404;BME280;50726;54.912;-8.392;2022-09-01T14:35:29;101539.38;;;42.92;53.87
64404;BME280;50726;54.912;-8.392;2022-09-01T14:38:14;101542.41;;;40.52;55.53
64404;BME280;50726;54.912;-8.392;2022-09-01T14:40:42;101537.88;;;39.56;54.72
64404;BME280;50726;54.912;-8.392;2022-09-01T14:43:11;101537.25;;;38.13;61.19